Time;durP1;ratioP1;P1;durP2;ratioP2;P2;SDS_P1;SDS_P2;PMS_P1;PMS_P2;Temp;Humidity;BMP_temperature;BMP_pressure;BME280_temperature;BME280_humidity;BME280_pressure;Samples;Min_cycle;Max_cycle;Signal;HPM_P1;HPM_P2
2022/04/24 00:01:32;;;;;;;27.10;20.37;;;10.80;99.90;;;;;;5028172;28;20177;-73
2022/04/24 00:03:58;;;;;;;26.43;20.37;;;10.80;99.90;;;;;;5010865;28;20423;-72
2022/04/24 00:06:25;;;;;;;28.50;19.83;;;10.90;99.90;;;;;;5031761;28;20732;-72
2022/04/24 00:08:51;;;;;;;26.77;19.23;;;10.80;99.90;;;;;;5013673;28;21250;-72
2022/04/24 00:11:17;;;;;;;30.53;21.47;;;10.80;99.90;;;;;;5031706;28;20454;-71
2022/04/24 00:13:43;;;;;;;28.07;20.33;;;10.70;99.90;;;;;;5031449;28;20963;-72
2022/04/24 00:16:10;;;;;;;30.90;21.00;;;10.60;99.90;;;;;;5031355;28;20973;-72
2022/04/24 00:18:38;;;;;;;27.27;20.53;;;10.60;99.90;;;;;;5013383;28;20989;-71
2022/04/24 00:21:04;;;;;;;28.77;21.10;;;10.60;99.90;;;;;;5031290;28;20938;-72
2022/04/24 00:23:31;;;;;;;33.10;22.20;;;10.60;99.90;;;;;;5013335;28;20533;-72
2022/04/24 00:25:57;;;;;;;28.40;20.33;;;10.60;99.90;;;;;;5013324;28;20445;-72
2022/04/24 00:28:22;;;;;;;31.03;20.40;;;10.60;99.90;;;;;;5014512;28;20538;-72
2022/04/24 00:30:48;;;;;;;26.07;19.27;;;10.50;99.90;;;;;;5031211;28;20420;-72
2022/04/24 00:33:14;;;;;;;27.20;19.27;;;10.50;99.90;;;;;;5031211;28;20575;-72
2022/04/24 00:35:39;;;;;;;29.10;20.20;;;10.50;99.90;;;;;;5013373;28;20493;-72
2022/04/24 00:38:05;;;;;;;30.13;21.80;;;10.40;99.90;;;;;;5031051;28;20206;-71
2022/04/24 00:40:31;;;;;;;32.73;22.07;;;10.40;99.90;;;;;;5030936;28;20183;-72
2022/04/24 00:42:56;;;;;;;29.13;19.93;;;10.40;99.90;;;;;;5030858;28;20265;-72
2022/04/24 00:45:22;;;;;;;26.10;19.67;;;10.40;99.90;;;;;;5012981;28;20245;-72
2022/04/24 00:47:48;;;;;;;27.00;18.80;;;10.40;99.90;;;;;;5030794;28;20281;-72
2022/04/24 00:50:14;;;;;;;26.20;19.03;;;10.40;99.90;;;;;;5030879;28;20910;-72
2022/04/24 00:52:40;;;;;;;28.07;20.40;;;10.30;99.90;;;;;;5030687;28;20429;-72
2022/04/24 00:55:07;;;;;;;27.47;20.10;;;10.30;99.90;;;;;;5030640;28;20212;-72
2022/04/24 00:57:32;;;;;;;29.40;20.90;;;10.30;99.90;;;;;;5030618;28;20431;-73
2022/04/24 00:59:58;;;;;;;30.20;21.67;;;10.20;99.90;;;;;;5012770;28;20948;-72
2022/04/24 01:02:24;;;;;;;31.13;21.93;;;10.20;99.90;;;;;;5012539;28;20246;-73
2022/04/24 01:04:50;;;;;;;26.90;20.30;;;10.10;99.90;;;;;;5030299;28;20672;-71
2022/04/24 01:07:16;;;;;;;29.77;21.30;;;10.10;99.90;;;;;;5030485;28;20437;-72
2022/04/24 01:09:42;;;;;;;32.27;21.23;;;10.10;99.90;;;;;;4995828;28;20819;-72
2022/04/24 01:12:08;;;;;;;29.50;22.30;;;10.00;99.90;;;;;;5030263;28;20626;-72
2022/04/24 01:14:35;;;;;;;28.57;20.83;;;10.00;99.90;;;;;;5030045;28;20580;-72
2022/04/24 01:17:03;;;;;;;31.30;22.57;;;10.00;99.90;;;;;;5028781;28;20436;-72
2022/04/24 01:19:29;;;;;;;36.80;23.50;;;10.00;99.90;;;;;;5029922;28;20510;-71
2022/04/24 01:21:55;;;;;;;31.33;21.97;;;10.10;99.90;;;;;;5012055;28;20511;-72
2022/04/24 01:24:24;;;;;;;28.53;19.97;;;10.00;99.90;;;;;;5029784;28;20908;-72
2022/04/24 01:26:50;;;;;;;28.80;21.33;;;10.00;99.90;;;;;;5029887;28;20482;-71
2022/04/24 01:29:16;;;;;;;29.47;20.17;;;10.00;99.90;;;;;;5030002;28;20424;-73
2022/04/24 01:31:44;;;;;;;32.57;22.27;;;10.00;99.90;;;;;;5011820;28;20193;-72
2022/04/24 01:34:10;;;;;;;32.07;21.10;;;10.00;99.90;;;;;;5029601;28;20420;-72
2022/04/24 01:36:36;;;;;;;27.90;21.33;;;9.90;99.90;;;;;;5029667;28;20419;-71
2022/04/24 01:39:02;;;;;;;34.90;22.73;;;9.80;99.90;;;;;;5029706;28;20412;-72
2022/04/24 01:41:28;;;;;;;31.43;22.10;;;9.60;99.90;;;;;;5011565;28;20180;-71
2022/04/24 01:43:54;;;;;;;33.67;23.47;;;9.60;99.90;;;;;;5031304;28;20418;-72
2022/04/24 01:46:19;;;;;;;37.23;26.43;;;9.80;99.90;;;;;;5031351;28;20184;-72
2022/04/24 01:48:45;;;;;;;36.43;24.07;;;10.00;99.90;;;;;;5011759;28;20207;-71
2022/04/24 01:51:11;;;;;;;34.80;24.77;;;10.10;99.90;;;;;;5029425;28;20729;-72
2022/04/24 01:53:37;;;;;;;35.73;24.80;;;10.20;99.90;;;;;;5029370;28;20183;-71
2022/04/24 01:56:05;;;;;;;37.07;24.70;;;10.30;99.90;;;;;;5029335;28;20466;-72
2022/04/24 01:58:31;;;;;;;36.90;25.87;;;10.30;99.90;;;;;;5011307;28;20632;-72
2022/04/24 02:00:57;;;;;;;35.00;25.57;;;10.30;99.90;;;;;;5029251;28;20914;-73
2022/04/24 02:03:24;;;;;;;35.90;24.93;;;10.30;99.90;;;;;;5029020;28;20426;-72
2022/04/24 02:05:50;;;;;;;36.27;25.83;;;10.40;99.90;;;;;;5029434;28;20419;-72
2022/04/24 02:08:16;;;;;;;35.40;25.20;;;10.50;99.90;;;;;;5011279;28;20437;-72
2022/04/24 02:10:42;;;;;;;30.03;23.50;;;10.50;99.90;;;;;;5029072;28;20427;-72
2022/04/24 02:13:08;;;;;;;37.10;25.33;;;10.40;99.90;;;;;;5028906;28;20593;-72
2022/04/24 02:15:34;;;;;;;34.53;24.70;;;10.50;99.90;;;;;;5028835;28;20494;-72
2022/04/24 02:18:00;;;;;;;35.37;24.17;;;10.50;99.90;;;;;;5028719;28;20469;-72
2022/04/24 02:20:26;;;;;;;32.30;24.03;;;10.30;99.90;;;;;;5029061;28;20448;-72
2022/04/24 02:22:55;;;;;;;37.93;25.10;;;10.40;99.90;;;;;;5028802;28;20857;-72
2022/04/24 02:25:20;;;;;;;39.73;25.80;;;10.30;99.90;;;;;;5028782;28;20205;-71
2022/04/24 02:27:46;;;;;;;36.43;25.20;;;10.20;99.90;;;;;;5010746;28;20443;-72
2022/04/24 02:30:12;;;;;;;35.30;23.80;;;10.20;99.90;;;;;;5028856;28;20695;-73
2022/04/24 02:32:37;;;;;;;37.23;25.33;;;10.20;99.90;;;;;;5028702;28;20181;-72
2022/04/24 02:35:03;;;;;;;36.53;24.47;;;10.20;99.90;;;;;;5028697;28;20226;-72
2022/04/24 02:37:32;;;;;;;39.07;25.40;;;10.20;99.90;;;;;;5028692;28;20660;-72
2022/04/24 02:39:58;;;;;;;37.73;26.20;;;10.20;99.90;;;;;;5028773;28;20417;-72
2022/04/24 02:42:24;;;;;;;40.60;26.60;;;10.30;99.90;;;;;;5029081;28;20922;-72
2022/04/24 02:44:49;;;;;;;42.60;29.13;;;10.30;99.90;;;;;;5029218;28;20426;-72
2022/04/24 02:47:16;;;;;;;43.57;30.27;;;10.30;99.90;;;;;;5011148;28;20214;-72
2022/04/24 02:49:42;;;;;;;47.20;30.03;;;10.30;99.90;;;;;;5029167;28;20187;-72
2022/04/24 02:52:07;;;;;;;43.17;30.03;;;10.30;99.90;;;;;;5029036;28;20427;-72
2022/04/24 02:54:33;;;;;;;43.07;28.30;;;10.20;99.90;;;;;;5029226;28;20315;-72
2022/04/24 02:56:59;;;;;;;47.37;30.00;;;10.30;99.90;;;;;;5029415;28;20202;-72
2022/04/24 02:59:25;;;;;;;45.67;28.20;;;10.20;99.90;;;;;;5011704;28;20177;-72
2022/04/24 03:01:52;;;;;;;45.70;27.87;;;10.20;99.90;;;;;;5029440;28;20632;-72
2022/04/24 03:04:19;;;;;;;49.20;31.13;;;10.20;99.90;;;;;;5029447;28;20420;-73
2022/04/24 03:06:45;;;;;;;49.07;29.63;;;10.10;99.90;;;;;;5029380;28;20423;-73
2022/04/24 03:09:11;;;;;;;45.63;29.67;;;10.10;99.90;;;;;;5029417;28;20424;-72
2022/04/24 03:11:36;;;;;;;49.67;30.40;;;10.00;99.90;;;;;;5029184;28;20198;-73
2022/04/24 03:14:02;;;;;;;52.30;30.33;;;9.90;99.90;;;;;;5029305;28;20180;-73
2022/04/24 03:16:28;;;;;;;44.80;30.47;;;10.00;99.90;;;;;;5029231;28;20597;-73
2022/04/24 03:18:53;;;;;;;50.97;31.00;;;10.00;99.90;;;;;;5029340;28;20804;-73
2022/04/24 03:21:19;;;;;;;56.43;32.20;;;10.10;99.90;;;;;;5011446;28;20239;-72
2022/04/24 03:23:45;;;;;;;51.80;30.97;;;10.10;99.90;;;;;;5028604;28;20177;-73
2022/04/24 03:26:13;;;;;;;59.87;32.20;;;10.10;99.90;;;;;;5028798;28;20209;-72
2022/04/24 03:28:40;;;;;;;50.83;30.33;;;10.10;99.90;;;;;;5029165;28;20189;-73
2022/04/24 03:31:06;;;;;;;52.43;32.63;;;10.10;99.90;;;;;;5028834;28;21004;-72
2022/04/24 03:33:32;;;;;;;46.40;30.00;;;10.10;99.90;;;;;;5029068;28;20500;-73
2022/04/24 03:35:58;;;;;;;52.20;32.33;;;10.00;99.90;;;;;;5011085;28;20578;-73
2022/04/24 03:38:23;;;;;;;45.90;31.50;;;10.00;99.90;;;;;;5028958;28;20208;-73
2022/04/24 03:40:49;;;;;;;49.13;31.90;;;9.90;99.90;;;;;;5032483;28;20269;-73
2022/04/24 03:43:15;;;;;;;54.93;32.30;;;9.90;99.90;;;;;;5032580;28;20319;-75
2022/04/24 03:45:41;;;;;;;61.47;33.77;;;9.90;99.90;;;;;;4998270;28;20541;-72
2022/04/24 03:48:07;;;;;;;63.97;35.10;;;10.00;99.90;;;;;;5032486;28;20213;-70
2022/04/24 03:50:32;;;;;;;51.00;31.10;;;10.00;99.90;;;;;;5032697;28;20188;-73
2022/04/24 03:52:58;;;;;;;63.57;31.97;;;9.90;99.90;;;;;;5032549;28;20422;-72
2022/04/24 03:55:24;;;;;;;63.30;33.53;;;9.90;99.90;;;;;;5032408;28;20675;-72
2022/04/24 03:57:49;;;;;;;58.07;31.27;;;9.90;99.90;;;;;;5032301;28;20209;-72
2022/04/24 04:00:16;;;;;;;56.77;32.23;;;9.90;99.90;;;;;;5032466;28;20357;-72
2022/04/24 04:02:45;;;;;;;58.83;34.00;;;9.80;99.90;;;;;;5032381;28;20192;-72
2022/04/24 04:05:11;;;;;;;59.73;33.83;;;9.70;99.90;;;;;;5034043;28;20431;-71
2022/04/24 04:07:37;;;;;;;58.20;34.40;;;9.70;99.90;;;;;;5034198;28;20451;-72
2022/04/24 04:10:04;;;;;;;58.73;34.00;;;9.60;99.90;;;;;;5033983;28;20926;-71
2022/04/24 04:12:29;;;;;;;68.73;38.87;;;9.50;99.90;;;;;;5034085;28;20253;-72
2022/04/24 04:14:55;;;;;;;71.13;39.70;;;9.40;99.90;;;;;;5034019;28;20467;-72
2022/04/24 04:17:20;;;;;;;52.27;34.30;;;9.40;99.90;;;;;;5015684;28;20210;-72
2022/04/24 04:19:46;;;;;;;68.60;36.30;;;9.40;99.90;;;;;;5015852;28;20181;-73
2022/04/24 04:22:12;;;;;;;75.77;37.60;;;9.40;99.90;;;;;;5015845;28;20533;-73
2022/04/24 04:24:37;;;;;;;23.67;15.87;;;9.60;99.90;;;;;;5033036;28;20259;-72
2022/04/24 04:27:03;;;;;;;22.23;15.27;;;9.50;99.90;;;;;;5032475;28;20208;-73
2022/04/24 04:29:29;;;;;;;24.83;14.90;;;9.50;99.90;;;;;;5032333;28;20626;-73
2022/04/24 04:31:55;;;;;;;17.93;9.93;;;9.60;99.90;;;;;;5032088;28;20437;-73
2022/04/24 04:34:21;;;;;;;11.73;7.73;;;9.30;99.90;;;;;;5032240;28;20649;-72
2022/04/24 04:36:47;;;;;;;7.67;4.87;;;9.30;99.90;;;;;;5032039;28;20195;-73
2022/04/24 04:39:12;;;;;;;4.53;2.47;;;9.20;99.90;;;;;;5031972;28;20417;-73
2022/04/24 04:41:38;;;;;;;2.27;1.83;;;8.80;99.90;;;;;;5031792;28;20423;-73
2022/04/24 04:44:05;;;;;;;2.07;1.87;;;8.70;99.90;;;;;;5031527;28;20189;-73
2022/04/24 04:46:31;;;;;;;0.80;0.60;;;8.60;99.90;;;;;;5031791;28;20190;-74
2022/04/24 04:48:56;;;;;;;1.27;0.80;;;8.40;99.90;;;;;;5013999;28;20427;-73
2022/04/24 04:51:22;;;;;;;1.53;0.90;;;8.30;99.90;;;;;;5031374;28;20586;-74
2022/04/24 04:53:48;;;;;;;1.63;0.80;;;8.20;99.90;;;;;;5014390;28;20188;-74
2022/04/24 04:56:13;;;;;;;0.80;0.60;;;8.10;99.90;;;;;;5032876;28;20243;-73
2022/04/24 04:58:39;;;;;;;1.50;0.80;;;8.00;99.90;;;;;;5013894;28;20236;-72
2022/04/24 05:01:04;;;;;;;2.60;0.60;;;8.00;99.90;;;;;;5031627;28;20184;-75
2022/04/24 05:03:30;;;;;;;0.70;0.60;;;8.00;99.90;;;;;;5031476;28;20192;-75
2022/04/24 05:05:56;;;;;;;6.43;0.87;;;8.00;99.90;;;;;;5013770;28;20189;-75
2022/04/24 05:08:22;;;;;;;1.50;0.60;;;7.90;99.90;;;;;;5031127;28;21313;-75
2022/04/24 05:10:48;;;;;;;0.70;0.50;;;7.90;99.90;;;;;;4997190;28;20224;-74
2022/04/24 05:13:13;;;;;;;2.20;0.40;;;7.90;99.90;;;;;;5013403;28;20198;-74
2022/04/24 05:15:39;;;;;;;1.10;0.50;;;8.00;99.90;;;;;;5013220;28;20227;-74
2022/04/24 05:18:05;;;;;;;2.60;0.40;;;8.00;99.90;;;;;;5031108;28;20200;-75
2022/04/24 05:20:33;;;;;;;8.73;0.60;;;8.00;99.90;;;;;;4996687;28;20211;-75
2022/04/24 05:23:06;;;;;;;0.80;0.50;;;8.00;99.90;;;;;;5030931;28;20219;-77
2022/04/24 05:25:32;;;;;;;3.67;0.60;;;8.00;99.90;;;;;;5030859;28;21343;-78
2022/04/24 05:28:00;;;;;;;2.50;0.50;;;8.00;99.90;;;;;;5030887;28;20449;-77
2022/04/24 05:30:27;;;;;;;0.70;0.40;;;8.20;99.90;;;;;;5013353;28;21045;-77
2022/04/24 05:32:52;;;;;;;1.27;0.50;;;8.00;99.90;;;;;;5030749;28;20419;-77
2022/04/24 05:35:18;;;;;;;1.00;0.63;;;8.00;99.90;;;;;;5030873;28;20999;-78
2022/04/24 05:37:47;;;;;;;0.97;0.50;;;7.90;99.90;;;;;;5012450;28;20201;-77
2022/04/24 05:40:14;;;;;;;2.50;0.47;;;8.00;99.90;;;;;;5029060;28;20755;-77
2022/04/24 05:42:54;;;;;;;2.17;0.80;;;8.00;99.90;;;;;;5029424;28;20419;-78
2022/04/24 05:45:22;;;;;;;2.80;0.53;;;8.00;99.90;;;;;;5029189;28;20423;-77
2022/04/24 05:47:49;;;;;;;1.97;0.53;;;8.00;99.90;;;;;;5029061;28;20534;-78
2022/04/24 05:50:15;;;;;;;3.63;0.50;;;8.00;99.90;;;;;;5030377;28;20935;-77
2022/04/24 05:52:41;;;;;;;5.43;1.07;;;7.90;99.90;;;;;;5030432;28;20457;-77
2022/04/24 05:55:08;;;;;;;1.63;1.20;;;7.90;99.90;;;;;;5030657;28;20465;-77
2022/04/24 05:57:34;;;;;;;1.47;0.50;;;7.90;99.90;;;;;;5012628;28;20435;-77
2022/04/24 06:00:00;;;;;;;0.70;0.40;;;7.90;99.90;;;;;;5030336;28;20514;-78
2022/04/24 06:02:26;;;;;;;4.30;0.60;;;7.90;99.90;;;;;;5029740;28;20511;-77
2022/04/24 06:04:53;;;;;;;0.70;0.40;;;7.90;99.90;;;;;;5030455;28;20251;-78
2022/04/24 06:07:19;;;;;;;0.83;0.50;;;7.90;99.90;;;;;;5030458;28;20704;-77
2022/04/24 06:09:45;;;;;;;0.70;0.50;;;8.00;99.90;;;;;;5030400;28;20427;-77
2022/04/24 06:12:10;;;;;;;1.00;0.40;;;7.90;99.90;;;;;;5030169;28;20215;-77
2022/04/24 06:14:36;;;;;;;1.00;0.40;;;7.80;99.90;;;;;;5012421;28;20213;-77
2022/04/24 06:17:03;;;;;;;0.80;0.50;;;7.80;99.90;;;;;;5012435;28;20214;-77
2022/04/24 06:19:29;;;;;;;1.37;0.60;;;7.80;99.90;;;;;;5012658;28;20176;-77
2022/04/24 06:21:54;;;;;;;1.97;0.60;;;7.80;99.90;;;;;;5030006;28;20419;-78
2022/04/24 06:24:20;;;;;;;4.27;0.47;;;7.70;99.90;;;;;;5029721;28;20493;-77
2022/04/24 06:26:46;;;;;;;0.90;0.43;;;7.70;99.90;;;;;;5030024;28;20220;-77
2022/04/24 06:29:12;;;;;;;0.67;0.40;;;7.80;99.90;;;;;;5029975;28;20935;-77
2022/04/24 06:31:39;;;;;;;2.40;0.40;;;7.80;99.90;;;;;;5029829;28;20176;-77
2022/04/24 06:34:04;;;;;;;1.00;0.70;;;7.70;99.90;;;;;;5011981;28;20427;-78
2022/04/24 06:36:30;;;;;;;0.70;0.40;;;7.60;99.90;;;;;;5011885;28;20849;-77
2022/04/24 06:38:55;;;;;;;0.70;0.40;;;7.50;99.90;;;;;;5029956;28;20185;-78
2022/04/24 06:41:21;;;;;;;1.67;1.33;;;7.50;99.90;;;;;;5029765;28;20182;-78
2022/04/24 06:43:47;;;;;;;0.70;0.40;;;7.30;99.90;;;;;;5011832;28;20191;-76
2022/04/24 06:46:12;;;;;;;1.00;0.40;;;7.60;99.90;;;;;;5012327;28;20271;-77
2022/04/24 06:48:38;;;;;;;2.53;0.50;;;7.60;99.90;;;;;;5011675;28;20236;-78
2022/04/24 06:51:03;;;;;;;0.90;0.40;;;7.50;99.90;;;;;;5029330;28;20595;-71
2022/04/24 06:53:30;;;;;;;0.70;0.40;;;7.50;99.90;;;;;;5028881;28;20193;-73
2022/04/24 06:55:56;;;;;;;1.00;0.40;;;7.50;99.90;;;;;;5011044;28;20244;-72
2022/04/24 06:58:24;;;;;;;0.60;0.40;;;7.50;99.90;;;;;;5011222;28;20472;-72
2022/04/24 07:00:52;;;;;;;2.80;0.50;;;7.40;99.90;;;;;;5011087;28;20875;-72
2022/04/24 07:03:21;;;;;;;0.70;0.40;;;7.40;99.90;;;;;;5029088;28;20420;-72
2022/04/24 07:05:47;;;;;;;0.70;0.40;;;7.40;99.90;;;;;;5029089;28;20916;-72
2022/04/24 07:08:13;;;;;;;0.80;0.40;;;7.40;99.90;;;;;;5029153;28;20466;-72
2022/04/24 07:10:39;;;;;;;0.70;0.40;;;7.60;99.90;;;;;;5028974;28;21027;-72
2022/04/24 07:13:05;;;;;;;0.83;0.43;;;7.60;99.90;;;;;;5012308;28;20441;-72
2022/04/24 07:15:33;;;;;;;0.90;0.40;;;7.50;99.90;;;;;;5033103;28;20254;-72
2022/04/24 07:17:59;;;;;;;2.43;0.50;;;7.60;99.90;;;;;;5033178;28;20447;-73
2022/04/24 07:20:27;;;;;;;1.27;0.40;;;7.60;99.90;;;;;;5014978;28;20465;-72
2022/04/24 07:22:54;;;;;;;2.83;0.50;;;7.50;99.90;;;;;;5032726;28;20411;-71
2022/04/24 07:25:23;;;;;;;1.63;0.40;;;7.50;99.90;;;;;;5032381;28;20706;-72
2022/04/24 07:27:50;;;;;;;0.87;0.40;;;7.70;99.90;;;;;;5015089;28;20447;-72
2022/04/24 07:30:17;;;;;;;0.70;0.40;;;7.60;99.90;;;;;;5032814;28;20423;-72
2022/04/24 07:32:45;;;;;;;1.07;0.40;;;7.60;99.90;;;;;;5032613;28;20426;-72
2022/04/24 07:35:16;;;;;;;0.70;0.40;;;7.60;99.90;;;;;;5032876;28;20466;-72
2022/04/24 07:37:42;;;;;;;0.80;0.40;;;7.60;99.90;;;;;;5032850;28;21322;-73
2022/04/24 07:40:10;;;;;;;1.20;0.40;;;7.60;99.90;;;;;;5032953;28;20423;-73
2022/04/24 07:42:57;;;;;;;6.87;0.50;;;7.60;99.90;;;;;;5033138;28;20423;-72
2022/04/24 07:45:33;;;;;;;0.70;0.40;;;7.70;99.90;;;;;;5015236;28;20526;-72
2022/04/24 07:47:59;;;;;;;0.80;0.50;;;7.70;99.90;;;;;;5033208;28;20473;-72
2022/04/24 07:50:28;;;;;;;0.60;0.40;;;7.70;99.90;;;;;;5016894;28;20426;-72
2022/04/24 07:52:54;;;;;;;0.60;0.40;;;7.80;99.90;;;;;;5032646;28;20427;-73
2022/04/24 07:55:23;;;;;;;0.70;0.40;;;7.70;99.90;;;;;;5032762;28;20478;-72
2022/04/24 07:57:50;;;;;;;0.90;0.67;;;7.80;99.90;;;;;;5032463;28;20450;-73
2022/04/24 08:00:17;;;;;;;1.93;1.13;;;7.80;99.90;;;;;;5014853;28;20432;-72
2022/04/24 08:02:57;;;;;;;1.00;0.50;;;8.00;99.90;;;;;;5014705;28;20447;-73
2022/04/24 08:05:25;;;;;;;1.20;0.90;;;8.00;99.90;;;;;;5032370;28;20980;-73
2022/04/24 08:07:51;;;;;;;0.70;0.50;;;8.00;99.90;;;;;;5014292;28;20454;-73
2022/04/24 08:10:17;;;;;;;5.93;4.47;;;8.00;99.90;;;;;;5031912;28;20486;-72
2022/04/24 08:12:42;;;;;;;1.77;1.67;;;8.00;99.90;;;;;;5032083;28;20432;-73
2022/04/24 08:15:08;;;;;;;1.40;0.70;;;8.00;99.90;;;;;;5014191;28;20502;-72
2022/04/24 08:17:34;;;;;;;0.70;0.50;;;8.00;99.90;;;;;;5014258;28;20939;-72
2022/04/24 08:20:00;;;;;;;0.70;0.43;;;7.80;99.90;;;;;;5032898;28;20420;-72
2022/04/24 08:22:25;;;;;;;0.70;0.50;;;7.80;99.90;;;;;;5031455;28;20542;-72
2022/04/24 08:24:51;;;;;;;1.40;0.60;;;7.80;99.90;;;;;;5030558;28;20242;-72
2022/04/24 08:27:16;;;;;;;0.80;0.60;;;7.90;99.90;;;;;;5031339;28;20578;-72
2022/04/24 08:29:43;;;;;;;0.70;0.50;;;8.00;99.90;;;;;;5013501;28;20246;-71
2022/04/24 08:32:08;;;;;;;1.20;0.40;;;7.90;99.90;;;;;;5013608;28;20761;-73
2022/04/24 08:34:34;;;;;;;5.53;0.50;;;7.90;99.90;;;;;;5031470;28;20419;-72
2022/04/24 08:36:59;;;;;;;0.60;0.43;;;7.90;99.90;;;;;;5031388;28;20609;-72
2022/04/24 08:39:25;;;;;;;0.70;0.40;;;7.90;99.90;;;;;;5031732;28;20303;-72
2022/04/24 08:41:51;;;;;;;0.70;0.50;;;8.00;99.90;;;;;;5014621;28;20197;-73
2022/04/24 08:44:16;;;;;;;1.27;0.53;;;8.10;99.90;;;;;;5033406;28;20931;-74
2022/04/24 08:46:43;;;;;;;3.10;0.80;;;8.10;99.90;;;;;;5031776;28;20182;-74
2022/04/24 08:49:10;;;;;;;2.10;1.10;;;8.20;99.90;;;;;;5031822;28;20173;-73
2022/04/24 08:51:39;;;;;;;0.70;0.50;;;8.30;99.90;;;;;;5031831;28;20510;-74
2022/04/24 08:54:05;;;;;;;0.70;0.53;;;8.30;99.90;;;;;;5033161;28;20491;-74
2022/04/24 08:56:30;;;;;;;0.60;0.30;;;8.40;99.90;;;;;;5033890;28;20563;-74
2022/04/24 08:58:56;;;;;;;0.70;0.43;;;8.40;99.90;;;;;;4983541;28;20219;-74
2022/04/24 09:01:22;;;;;;;1.20;0.50;;;8.40;99.90;;;;;;5033634;28;20186;-74
2022/04/24 09:03:47;;;;;;;0.67;0.40;;;8.40;99.90;;;;;;5033182;28;20166;-74
2022/04/24 09:06:21;;;;;;;0.70;0.40;;;8.40;99.90;;;;;;5014499;28;20555;-74
2022/04/24 09:08:47;;;;;;;0.70;0.40;;;8.40;99.90;;;;;;5013693;28;20247;-74
2022/04/24 09:11:13;;;;;;;0.70;0.40;;;8.30;99.90;;;;;;5013855;28;20469;-74
2022/04/24 09:16:47;;;;;;;0.70;0.40;;;8.40;99.90;;;;;;5030960;28;20492;-74
2022/04/24 09:19:23;;;;;;;3.43;0.50;;;8.40;99.90;;;;;;5031287;28;20502;-74
2022/04/24 09:21:54;;;;;;;1.40;0.40;;;8.40;99.90;;;;;;5031266;28;20435;-75
2022/04/24 09:24:20;;;;;;;2.00;0.50;;;8.40;99.90;;;;;;5031022;28;20467;-74
2022/04/24 09:26:53;;;;;;;0.60;0.50;;;8.50;99.90;;;;;;5031106;28;20456;-75
2022/04/24 09:29:21;;;;;;;1.47;0.50;;;8.50;99.90;;;;;;5013878;28;20810;-75
2022/04/24 09:31:48;;;;;;;1.27;0.50;;;8.60;99.90;;;;;;5030955;28;20476;-74
2022/04/24 09:34:17;;;;;;;0.70;0.50;;;8.70;99.90;;;;;;5030744;28;20416;-74
2022/04/24 09:36:46;;;;;;;1.17;0.50;;;8.70;99.90;;;;;;5029665;28;20478;-74
2022/04/24 09:39:12;;;;;;;1.73;0.70;;;8.70;99.90;;;;;;5030526;28;20415;-74
2022/04/24 09:41:40;;;;;;;0.70;0.50;;;8.60;99.90;;;;;;5030675;28;20419;-74
2022/04/24 09:44:13;;;;;;;0.70;0.50;;;8.60;99.90;;;;;;5012476;28;20790;-74
2022/04/24 09:46:39;;;;;;;0.97;0.60;;;8.40;99.90;;;;;;5030097;28;20451;-75
2022/04/24 09:49:08;;;;;;;1.40;0.60;;;8.40;99.90;;;;;;5012099;28;20463;-74
2022/04/24 09:51:44;;;;;;;1.00;0.47;;;8.50;99.90;;;;;;5030160;28;20193;-75
2022/04/24 09:54:10;;;;;;;1.83;0.90;;;8.40;99.90;;;;;;5012732;28;20429;-75
2022/04/24 09:56:37;;;;;;;0.67;0.50;;;8.60;99.90;;;;;;5030124;28;20889;-75
2022/04/24 09:59:05;;;;;;;2.13;0.70;;;8.70;99.90;;;;;;5030004;28;21016;-75
2022/04/24 10:01:32;;;;;;;0.70;0.60;;;8.70;99.90;;;;;;5012261;28;20859;-73
2022/04/24 10:03:58;;;;;;;0.70;0.50;;;8.60;99.90;;;;;;5012522;28;20919;-74
2022/04/24 10:06:24;;;;;;;0.70;0.43;;;8.60;99.90;;;;;;5029963;28;20423;-75
2022/04/24 10:08:51;;;;;;;0.80;0.60;;;8.70;99.90;;;;;;5029856;28;20290;-74
2022/04/24 10:11:17;;;;;;;1.10;0.60;;;8.70;99.90;;;;;;5011169;28;20188;-75
2022/04/24 10:13:45;;;;;;;1.23;0.60;;;8.80;99.90;;;;;;5011666;28;20697;-75
2022/04/24 10:16:17;;;;;;;0.90;0.40;;;8.80;99.90;;;;;;5029468;28;20470;-74
2022/04/24 10:18:58;;;;;;;0.70;0.50;;;8.90;99.90;;;;;;5011592;28;20568;-74
2022/04/24 10:21:57;;;;;;;0.70;0.50;;;9.00;99.90;;;;;;5029271;28;20419;-75
2022/04/24 10:24:24;;;;;;;0.70;0.50;;;9.10;99.90;;;;;;5029081;28;20443;-75
2022/04/24 10:26:55;;;;;;;0.90;0.60;;;9.10;99.90;;;;;;5029576;28;20426;-74
2022/04/24 10:29:21;;;;;;;0.90;0.60;;;9.10;99.90;;;;;;5011778;28;20419;-75
2022/04/24 10:31:48;;;;;;;1.10;0.80;;;9.20;99.90;;;;;;5029724;28;20408;-75
2022/04/24 10:34:17;;;;;;;0.70;0.50;;;9.10;99.90;;;;;;5029639;28;20443;-74
2022/04/24 10:37:13;;;;;;;1.13;0.73;;;9.10;99.90;;;;;;5029365;28;20473;-75
2022/04/24 10:39:40;;;;;;;0.80;0.60;;;9.00;99.90;;;;;;4995658;28;20801;-75
2022/04/24 10:42:14;;;;;;;0.80;0.50;;;9.00;99.90;;;;;;5029241;28;20428;-74
2022/04/24 10:45:14;;;;;;;1.13;0.70;;;9.00;99.90;;;;;;4995863;28;20426;-75
2022/04/24 10:48:05;;;;;;;1.37;0.70;;;9.10;99.90;;;;;;5028563;28;20532;-75
2022/04/24 10:50:31;;;;;;;0.70;0.50;;;9.10;99.90;;;;;;5010922;28;20784;-75
2022/04/24 10:52:56;;;;;;;0.80;0.70;;;9.20;99.90;;;;;;5028906;28;20426;-75
2022/04/24 10:55:27;;;;;;;0.80;0.50;;;9.30;99.90;;;;;;5028802;28;20553;-75
2022/04/24 10:57:57;;;;;;;1.27;0.67;;;9.10;99.90;;;;;;5028893;28;20196;-75
2022/04/24 11:00:34;;;;;;;5.80;0.93;;;9.20;99.90;;;;;;5011341;28;20435;-74
2022/04/24 11:03:14;;;;;;;1.47;0.83;;;9.30;99.90;;;;;;5029137;28;20481;-74
2022/04/24 11:05:43;;;;;;;0.70;0.60;;;9.20;99.90;;;;;;5010802;28;20435;-75
2022/04/24 11:08:10;;;;;;;1.30;0.70;;;9.20;99.90;;;;;;5028849;28;21043;-75
2022/04/24 11:10:43;;;;;;;1.60;0.67;;;9.30;99.90;;;;;;5010598;28;20434;-74
2022/04/24 11:13:14;;;;;;;1.20;0.60;;;9.30;99.90;;;;;;5011187;28;20799;-75
2022/04/24 11:15:45;;;;;;;1.10;0.60;;;9.50;99.90;;;;;;5028763;28;20459;-74
2022/04/24 11:18:24;;;;;;;1.37;0.77;;;9.40;99.90;;;;;;5010839;28;20443;-75
2022/04/24 11:20:54;;;;;;;0.80;0.80;;;9.50;99.90;;;;;;5028885;28;20773;-75
2022/04/24 11:23:21;;;;;;;3.00;0.73;;;9.50;99.90;;;;;;5011042;28;20432;-75
2022/04/24 11:25:47;;;;;;;1.27;1.17;;;9.60;99.90;;;;;;5028934;28;20526;-75
2022/04/24 11:28:15;;;;;;;2.30;0.77;;;9.70;99.90;;;;;;5029020;28;20530;-75
2022/04/24 11:30:41;;;;;;;1.00;0.90;;;9.80;99.90;;;;;;5011669;28;20437;-75
2022/04/24 11:33:08;;;;;;;0.70;0.70;;;9.90;99.90;;;;;;5011186;28;20435;-74
2022/04/24 11:35:37;;;;;;;1.13;1.03;;;10.10;99.90;;;;;;5011634;28;20197;-74
2022/04/24 11:38:04;;;;;;;4.13;2.00;;;10.30;99.90;;;;;;5028818;28;20444;-75
2022/04/24 11:40:33;;;;;;;1.50;1.20;;;10.50;99.90;;;;;;5029500;28;21039;-74
2022/04/24 11:43:06;;;;;;;1.13;1.03;;;10.60;99.90;;;;;;5030415;28;21031;-74
2022/04/24 11:51:15;;;;;;;0.90;0.90;;;10.80;99.90;;;;;;5014241;28;20804;-74
2022/04/24 11:53:42;;;;;;;1.30;0.77;;;10.60;99.90;;;;;;5028907;28;20850;-74
2022/04/24 11:56:09;;;;;;;1.20;0.80;;;10.50;99.90;;;;;;5029038;28;20970;-75
2022/04/24 11:58:37;;;;;;;0.80;0.70;;;10.50;99.90;;;;;;5029096;28;20449;-75
2022/04/24 12:01:04;;;;;;;0.97;0.70;;;10.60;99.90;;;;;;5013616;28;20911;-75
2022/04/24 12:03:32;;;;;;;1.13;0.90;;;10.50;99.90;;;;;;5032598;28;20508;-75
2022/04/24 12:06:02;;;;;;;1.17;0.90;;;10.60;99.90;;;;;;5032630;28;20554;-74
2022/04/24 12:08:45;;;;;;;1.73;1.60;;;10.70;99.90;;;;;;5014604;28;20886;-75
2022/04/24 12:11:24;;;;;;;1.00;0.90;;;10.70;99.90;;;;;;5014929;28;20890;-75
2022/04/24 12:14:15;;;;;;;1.53;0.90;;;10.70;99.90;;;;;;5032450;28;20419;-75
2022/04/24 12:16:48;;;;;;;0.77;0.60;;;10.70;99.90;;;;;;5032107;28;20481;-74
2022/04/24 12:19:18;;;;;;;5.13;4.73;;;10.80;99.90;;;;;;5032223;28;20424;-75
2022/04/24 12:21:49;;;;;;;1.10;1.00;;;10.90;99.90;;;;;;5031849;28;20420;-75
2022/04/24 12:24:15;;;;;;;1.07;0.70;;;10.90;99.90;;;;;;5014169;28;20421;-75
2022/04/24 12:26:48;;;;;;;3.90;3.60;;;11.00;99.90;;;;;;5031988;28;20431;-74
2022/04/24 12:29:17;;;;;;;1.57;0.70;;;11.10;99.90;;;;;;5031971;28;20427;-75
2022/04/24 12:31:44;;;;;;;0.87;0.60;;;11.00;99.90;;;;;;5032062;28;20422;-75
2022/04/24 12:34:10;;;;;;;0.80;0.77;;;11.00;99.90;;;;;;4997433;28;20421;-75
2022/04/24 12:36:45;;;;;;;0.80;0.77;;;11.20;99.90;;;;;;5031555;28;20475;-75
2022/04/24 12:39:11;;;;;;;0.80;0.80;;;11.20;99.90;;;;;;5014059;28;20709;-75
2022/04/24 12:41:38;;;;;;;1.13;0.60;;;11.10;99.90;;;;;;5031560;28;20630;-75
2022/04/24 12:44:05;;;;;;;1.57;0.80;;;11.10;99.90;;;;;;5031320;28;20185;-75
2022/04/24 12:46:32;;;;;;;1.63;0.50;;;10.90;99.90;;;;;;5031284;28;20424;-75
2022/04/24 12:48:58;;;;;;;0.73;0.57;;;10.80;99.90;;;;;;5031080;28;20416;-75
2022/04/24 12:51:25;;;;;;;0.80;0.67;;;10.80;99.90;;;;;;5012414;28;20796;-74
2022/04/24 12:53:52;;;;;;;0.80;0.70;;;10.90;99.90;;;;;;5030078;28;20437;-75
2022/04/24 12:56:18;;;;;;;2.83;0.60;;;11.00;99.90;;;;;;5030088;28;20580;-74